sensor_id;sensor_type;location;lat;lon;timestamp;pressure;altitude;pressure_sealevel;temperature;humidity
43115;BME280;28727;50.068;14.452;2023-03-26T00:02:22;98367.13;;;9.16;56.90
43115;BME280;28727;50.068;14.452;2023-03-26T00:04:55;98381.53;;;9.20;56.25
43115;BME280;28727;50.068;14.452;2023-03-26T00:07:27;98384.38;;;9.19;56.56
43115;BME280;28727;50.068;14.452;2023-03-26T00:09:59;98381.75;;;9.19;56.43
43115;BME280;28727;50.068;14.452;2023-03-26T00:12:30;98383.81;;;9.23;56.12
43115;BME280;28727;50.068;14.452;2023-03-26T00:15:03;98381.09;;;9.17;56.78
43115;BME280;28727;50.068;14.452;2023-03-26T00:17:35;98384.19;;;9.20;56.56
43115;BME280;28727;50.068;14.452;2023-03-26T00:20:07;98393.06;;;9.19;56.35
43115;BME280;28727;50.068;14.452;2023-03-26T00:22:40;98382.91;;;9.16;56.48
43115;BME280;28727;50.068;14.452;2023-03-26T00:25:12;98387.03;;;9.19;56.67
43115;BME280;28727;50.068;14.452;2023-03-26T00:27:44;98393.28;;;9.18;55.92
43115;BME280;28727;50.068;14.452;2023-03-26T00:30:16;98391.47;;;9.18;56.46
43115;BME280;28727;50.068;14.452;2023-03-26T00:32:48;98390.81;;;9.16;56.03
43115;BME280;28727;50.068;14.452;2023-03-26T00:35:24;98388.38;;;9.15;56.90
43115;BME280;28727;50.068;14.452;2023-03-26T00:37:57;98389.00;;;9.17;56.77
43115;BME280;28727;50.068;14.452;2023-03-26T00:40:32;98392.09;;;9.20;56.80
43115;BME280;28727;50.068;14.452;2023-03-26T00:43:07;98400.47;;;9.24;56.23
43115;BME280;28727;50.068;14.452;2023-03-26T00:45:51;98396.75;;;9.18;56.68
43115;BME280;28727;50.068;14.452;2023-03-26T00:48:24;98400.19;;;9.19;57.01
43115;BME280;28727;50.068;14.452;2023-03-26T00:51:16;98388.19;;;9.16;56.97
43115;BME280;28727;50.068;14.452;2023-03-26T00:53:49;98383.34;;;9.20;56.46
43115;BME280;28727;50.068;14.452;2023-03-26T00:56:22;98384.81;;;9.22;56.70
43115;BME280;28727;50.068;14.452;2023-03-26T00:58:54;98389.91;;;9.24;56.87
43115;BME280;28727;50.068;14.452;2023-03-26T01:01:29;98381.44;;;9.28;56.84
43115;BME280;28727;50.068;14.452;2023-03-26T01:04:21;98387.38;;;9.30;56.29
43115;BME280;28727;50.068;14.452;2023-03-26T01:07:01;98387.53;;;9.29;56.43
43115;BME280;28727;50.068;14.452;2023-03-26T01:09:38;98386.34;;;9.31;56.59
43115;BME280;28727;50.068;14.452;2023-03-26T01:12:15;98394.44;;;9.30;56.32
43115;BME280;28727;50.068;14.452;2023-03-26T01:14:51;98380.91;;;9.33;56.39
43115;BME280;28727;50.068;14.452;2023-03-26T01:17:23;98386.34;;;9.31;56.36
43115;BME280;28727;50.068;14.452;2023-03-26T01:22:48;98384.53;;;9.32;56.23
43115;BME280;28727;50.068;14.452;2023-03-26T01:25:24;98381.28;;;9.30;56.18
43115;BME280;28727;50.068;14.452;2023-03-26T01:27:58;98376.53;;;9.25;56.35
43115;BME280;28727;50.068;14.452;2023-03-26T01:30:48;98379.81;;;9.27;56.35
43115;BME280;28727;50.068;14.452;2023-03-26T01:33:35;98388.63;;;9.20;56.77
43115;BME280;28727;50.068;14.452;2023-03-26T01:36:33;98392.28;;;9.19;56.42
43115;BME280;28727;50.068;14.452;2023-03-26T01:45:20;98377.81;;;9.15;56.82
43115;BME280;28727;50.068;14.452;2023-03-26T01:47:54;98380.63;;;9.13;56.81
43115;BME280;28727;50.068;14.452;2023-03-26T01:50:30;98373.28;;;9.09;57.09
43115;BME280;28727;50.068;14.452;2023-03-26T01:53:02;98375.66;;;9.03;57.18
43115;BME280;28727;50.068;14.452;2023-03-26T01:55:45;98366.31;;;9.01;57.65
43115;BME280;28727;50.068;14.452;2023-03-26T02:04:04;98383.47;;;8.97;58.03
43115;BME280;28727;50.068;14.452;2023-03-26T02:07:02;98375.41;;;8.98;57.88
43115;BME280;28727;50.068;14.452;2023-03-26T02:09:41;98371.75;;;8.99;57.62
43115;BME280;28727;50.068;14.452;2023-03-26T02:12:17;98381.47;;;8.99;57.67
43115;BME280;28727;50.068;14.452;2023-03-26T02:14:51;98374.75;;;8.96;57.88
43115;BME280;28727;50.068;14.452;2023-03-26T02:17:25;98372.75;;;8.98;57.67
43115;BME280;28727;50.068;14.452;2023-03-26T02:20:00;98380.66;;;8.98;57.73
43115;BME280;28727;50.068;14.452;2023-03-26T02:22:38;98376.78;;;8.94;57.95
43115;BME280;28727;50.068;14.452;2023-03-26T02:25:19;98390.09;;;8.93;58.44
43115;BME280;28727;50.068;14.452;2023-03-26T02:27:54;98382.84;;;8.95;58.32
43115;BME280;28727;50.068;14.452;2023-03-26T02:30:26;98383.28;;;8.98;57.94
43115;BME280;28727;50.068;14.452;2023-03-26T02:33:02;98389.38;;;8.99;57.72
43115;BME280;28727;50.068;14.452;2023-03-26T02:35:42;98390.56;;;8.96;58.11
43115;BME280;28727;50.068;14.452;2023-03-26T02:38:16;98394.81;;;8.97;57.95
43115;BME280;28727;50.068;14.452;2023-03-26T02:40:49;98390.56;;;8.96;58.04
43115;BME280;28727;50.068;14.452;2023-03-26T02:43:25;98393.00;;;8.98;58.08
43115;BME280;28727;50.068;14.452;2023-03-26T02:45:57;98389.22;;;9.00;57.91
43115;BME280;28727;50.068;14.452;2023-03-26T02:48:48;98373.09;;;8.95;58.65
43115;BME280;28727;50.068;14.452;2023-03-26T02:51:28;98385.66;;;8.93;58.61
43115;BME280;28727;50.068;14.452;2023-03-26T02:54:04;98372.31;;;8.95;58.42
43115;BME280;28727;50.068;14.452;2023-03-26T02:57:06;98371.59;;;9.01;58.75
43115;BME280;28727;50.068;14.452;2023-03-26T03:00:01;98370.56;;;9.02;58.57
43115;BME280;28727;50.068;14.452;2023-03-26T03:02:39;98377.03;;;8.99;58.90
43115;BME280;28727;50.068;14.452;2023-03-26T03:05:40;98363.88;;;8.99;58.48
43115;BME280;28727;50.068;14.452;2023-03-26T03:08:21;98365.31;;;9.02;58.22
43115;BME280;28727;50.068;14.452;2023-03-26T03:11:14;98361.97;;;8.93;58.49
43115;BME280;28727;50.068;14.452;2023-03-26T03:13:49;98361.31;;;8.91;58.89
43115;BME280;28727;50.068;14.452;2023-03-26T03:16:32;98365.75;;;8.91;59.32
43115;BME280;28727;50.068;14.452;2023-03-26T03:19:10;98363.78;;;8.93;59.24
43115;BME280;28727;50.068;14.452;2023-03-26T03:21:43;98356.53;;;8.95;58.95
43115;BME280;28727;50.068;14.452;2023-03-26T03:24:15;98352.84;;;8.96;59.54
43115;BME280;28727;50.068;14.452;2023-03-26T03:26:51;98357.94;;;8.97;59.56
43115;BME280;28727;50.068;14.452;2023-03-26T03:29:47;98358.59;;;8.99;59.62
43115;BME280;28727;50.068;14.452;2023-03-26T03:32:39;98351.78;;;9.05;59.19
43115;BME280;28727;50.068;14.452;2023-03-26T03:35:12;98359.41;;;9.00;59.44
43115;BME280;28727;50.068;14.452;2023-03-26T03:37:47;98359.78;;;8.97;59.56
43115;BME280;28727;50.068;14.452;2023-03-26T03:40:19;98363.41;;;8.96;59.85
43115;BME280;28727;50.068;14.452;2023-03-26T03:42:51;98360.31;;;8.92;59.20
43115;BME280;28727;50.068;14.452;2023-03-26T03:45:41;98357.59;;;8.86;59.71
43115;BME280;28727;50.068;14.452;2023-03-26T03:48:34;98360.41;;;8.84;59.85
43115;BME280;28727;50.068;14.452;2023-03-26T03:51:10;98356.69;;;8.79;60.14
43115;BME280;28727;50.068;14.452;2023-03-26T03:53:53;98360.78;;;8.81;60.12
43115;BME280;28727;50.068;14.452;2023-03-26T03:56:45;98361.13;;;8.78;60.42
43115;BME280;28727;50.068;14.452;2023-03-26T03:59:18;98370.66;;;8.79;60.29
43115;BME280;28727;50.068;14.452;2023-03-26T04:01:49;98368.50;;;8.83;60.69
43115;BME280;28727;50.068;14.452;2023-03-26T04:04:32;98372.56;;;8.85;59.94
43115;BME280;28727;50.068;14.452;2023-03-26T04:07:07;98363.69;;;8.86;60.42
43115;BME280;28727;50.068;14.452;2023-03-26T04:09:59;98375.84;;;8.87;60.01
43115;BME280;28727;50.068;14.452;2023-03-26T04:12:50;98374.66;;;8.90;59.72
43115;BME280;28727;50.068;14.452;2023-03-26T04:15:26;98367.13;;;8.87;60.37
43115;BME280;28727;50.068;14.452;2023-03-26T04:17:58;98370.59;;;8.87;59.87
43115;BME280;28727;50.068;14.452;2023-03-26T04:20:30;98373.88;;;8.89;59.76
43115;BME280;28727;50.068;14.452;2023-03-26T04:23:04;98368.03;;;8.94;59.49
43115;BME280;28727;50.068;14.452;2023-03-26T04:25:36;98367.41;;;8.92;59.81
43115;BME280;28727;50.068;14.452;2023-03-26T04:28:30;98374.13;;;8.94;59.93
43115;BME280;28727;50.068;14.452;2023-03-26T04:31:18;98367.50;;;8.98;59.60
43115;BME280;28727;50.068;14.452;2023-03-26T04:34:17;98355.59;;;9.02;59.63
43115;BME280;28727;50.068;14.452;2023-03-26T04:37:23;98354.97;;;9.00;59.40
43115;BME280;28727;50.068;14.452;2023-03-26T04:40:15;98350.59;;;8.93;59.29
43115;BME280;28727;50.068;14.452;2023-03-26T04:42:56;98341.78;;;8.86;59.85
43115;BME280;28727;50.068;14.452;2023-03-26T04:45:48;98338.16;;;8.87;59.30
43115;BME280;28727;50.068;14.452;2023-03-26T04:48:22;98348.88;;;8.85;59.50
43115;BME280;28727;50.068;14.452;2023-03-26T04:50:54;98346.25;;;8.85;59.64
43115;BME280;28727;50.068;14.452;2023-03-26T04:53:26;98344.44;;;8.86;59.82
43115;BME280;28727;50.068;14.452;2023-03-26T04:56:43;98340.06;;;8.93;59.26
43115;BME280;28727;50.068;14.452;2023-03-26T04:59:33;98350.16;;;8.89;59.98
43115;BME280;28727;50.068;14.452;2023-03-26T05:02:09;98344.34;;;8.94;59.48
43115;BME280;28727;50.068;14.452;2023-03-26T05:04:51;98349.13;;;8.90;59.67
43115;BME280;28727;50.068;14.452;2023-03-26T05:07:23;98347.16;;;8.92;59.78
43115;BME280;28727;50.068;14.452;2023-03-26T05:09:58;98355.50;;;8.96;59.62
43115;BME280;28727;50.068;14.452;2023-03-26T05:12:52;98349.13;;;8.90;59.56
43115;BME280;28727;50.068;14.452;2023-03-26T05:15:32;98353.88;;;8.95;60.00
43115;BME280;28727;50.068;14.452;2023-03-26T05:18:19;98351.25;;;8.95;60.04
43115;BME280;28727;50.068;14.452;2023-03-26T05:20:58;98353.94;;;9.01;59.38
43115;BME280;28727;50.068;14.452;2023-03-26T05:23:34;98350.53;;;9.01;59.41
43115;BME280;28727;50.068;14.452;2023-03-26T05:26:16;98352.94;;;9.02;59.69
43115;BME280;28727;50.068;14.452;2023-03-26T05:28:48;98348.16;;;9.06;60.11
43115;BME280;28727;50.068;14.452;2023-03-26T05:31:35;98352.84;;;9.11;59.98
43115;BME280;28727;50.068;14.452;2023-03-26T05:34:09;98349.84;;;9.14;59.91
43115;BME280;28727;50.068;14.452;2023-03-26T05:36:41;98346.84;;;9.17;59.94
43115;BME280;28727;50.068;14.452;2023-03-26T05:39:30;98354.13;;;9.15;59.72
43115;BME280;28727;50.068;14.452;2023-03-26T05:42:04;98351.31;;;9.16;59.63
43115;BME280;28727;50.068;14.452;2023-03-26T05:45:08;98339.50;;;9.12;59.38
43115;BME280;28727;50.068;14.452;2023-03-26T05:47:41;98345.38;;;9.14;59.27
43115;BME280;28727;50.068;14.452;2023-03-26T05:50:13;98343.84;;;9.20;59.30
43115;BME280;28727;50.068;14.452;2023-03-26T05:52:46;98348.75;;;9.23;59.36
43115;BME280;28727;50.068;14.452;2023-03-26T05:55:37;98350.81;;;9.27;59.48
43115;BME280;28727;50.068;14.452;2023-03-26T05:58:32;98343.66;;;9.36;59.30
43115;BME280;28727;50.068;14.452;2023-03-26T06:01:39;98347.78;;;9.45;59.18
43115;BME280;28727;50.068;14.452;2023-03-26T06:04:34;98355.19;;;9.56;58.71
43115;BME280;28727;50.068;14.452;2023-03-26T06:07:25;98351.47;;;9.65;58.38
43115;BME280;28727;50.068;14.452;2023-03-26T06:10:28;98341.97;;;9.71;58.27
43115;BME280;28727;50.068;14.452;2023-03-26T06:13:00;98341.97;;;9.71;57.65
43115;BME280;28727;50.068;14.452;2023-03-26T06:15:32;98336.50;;;9.72;57.47
43115;BME280;28727;50.068;14.452;2023-03-26T06:18:14;98336.97;;;9.76;57.61
43115;BME280;28727;50.068;14.452;2023-03-26T06:20:59;98335.75;;;9.78;57.92
43115;BME280;28727;50.068;14.452;2023-03-26T06:23:43;98336.38;;;9.80;57.69
43115;BME280;28727;50.068;14.452;2023-03-26T06:26:38;98337.19;;;9.81;57.10
43115;BME280;28727;50.068;14.452;2023-03-26T06:29:33;98330.78;;;9.90;57.36
43115;BME280;28727;50.068;14.452;2023-03-26T06:32:22;98321.50;;;9.94;57.11
43115;BME280;28727;50.068;14.452;2023-03-26T06:34:58;98321.75;;;9.99;56.71
43115;BME280;28727;50.068;14.452;2023-03-26T06:37:29;98317.47;;;9.98;57.14
43115;BME280;28727;50.068;14.452;2023-03-26T06:40:05;98320.09;;;10.19;56.50
43115;BME280;28727;50.068;14.452;2023-03-26T06:43:06;98325.34;;;10.41;55.90
43115;BME280;28727;50.068;14.452;2023-03-26T06:46:00;98326.53;;;10.66;55.52
43115;BME280;28727;50.068;14.452;2023-03-26T06:48:41;98332.22;;;10.70;55.21
43115;BME280;28727;50.068;14.452;2023-03-26T06:51:43;98335.66;;;10.63;54.80
43115;BME280;28727;50.068;14.452;2023-03-26T06:54:42;98336.19;;;10.52;55.26
43115;BME280;28727;50.068;14.452;2023-03-26T06:57:40;98337.00;;;10.53;55.08
43115;BME280;28727;50.068;14.452;2023-03-26T07:00:30;98340.22;;;10.48;55.32
43115;BME280;28727;50.068;14.452;2023-03-26T07:03:21;98334.72;;;10.50;55.51
43115;BME280;28727;50.068;14.452;2023-03-26T07:06:15;98338.59;;;10.47;55.27
43115;BME280;28727;50.068;14.452;2023-03-26T07:09:06;98332.44;;;10.40;55.51
43115;BME280;28727;50.068;14.452;2023-03-26T07:11:58;98331.00;;;10.38;55.68
43115;BME280;28727;50.068;14.452;2023-03-26T07:14:29;98335.72;;;10.42;55.54
43115;BME280;28727;50.068;14.452;2023-03-26T07:17:15;98336.72;;;10.41;55.41
43115;BME280;28727;50.068;14.452;2023-03-26T07:19:55;98334.97;;;10.27;55.59
43115;BME280;28727;50.068;14.452;2023-03-26T07:22:30;98334.34;;;10.25;55.54
43115;BME280;28727;50.068;14.452;2023-03-26T07:25:08;98330.28;;;10.22;55.69
43115;BME280;28727;50.068;14.452;2023-03-26T07:27:51;98326.81;;;10.22;55.65
43115;BME280;28727;50.068;14.452;2023-03-26T07:31:20;98321.31;;;10.17;56.13
43115;BME280;28727;50.068;14.452;2023-03-26T07:34:47;98324.78;;;10.17;55.89
43115;BME280;28727;50.068;14.452;2023-03-26T07:37:40;98316.47;;;10.20;55.86
43115;BME280;28727;50.068;14.452;2023-03-26T07:46:41;98303.50;;;10.25;55.63
43115;BME280;28727;50.068;14.452;2023-03-26T07:49:25;98292.81;;;10.34;55.32
43115;BME280;28727;50.068;14.452;2023-03-26T07:52:26;98299.38;;;10.44;54.92
43115;BME280;28727;50.068;14.452;2023-03-26T07:55:18;98301.69;;;10.60;55.42
43115;BME280;28727;50.068;14.452;2023-03-26T08:12:17;98288.72;;;11.06;53.24
43115;BME280;28727;50.068;14.452;2023-03-26T08:17:43;98276.97;;;11.22;52.63
43115;BME280;28727;50.068;14.452;2023-03-26T08:23:04;98272.53;;;11.49;55.14
43115;BME280;28727;50.068;14.452;2023-03-26T08:31:03;98265.25;;;13.07;55.19
43115;BME280;28727;50.068;14.452;2023-03-26T08:33:35;98262.63;;;13.39;50.22
43115;BME280;28727;50.068;14.452;2023-03-26T08:36:09;98260.81;;;13.71;49.14
43115;BME280;28727;50.068;14.452;2023-03-26T08:38:40;98249.50;;;14.07;48.93
43115;BME280;28727;50.068;14.452;2023-03-26T09:01:23;98202.97;;;15.67;40.55
43115;BME280;28727;50.068;14.452;2023-03-26T09:20:51;98171.56;;;17.52;35.87
43115;BME280;28727;50.068;14.452;2023-03-26T09:29:50;98163.28;;;17.65;35.35
43115;BME280;28727;50.068;14.452;2023-03-26T10:11:38;98130.94;;;16.71;36.52
43115;BME280;28727;50.068;14.452;2023-03-26T10:14:19;98118.88;;;16.57;35.87
43115;BME280;28727;50.068;14.452;2023-03-26T10:36:36;98080.88;;;16.10;37.69
43115;BME280;28727;50.068;14.452;2023-03-26T10:39:32;98083.56;;;16.10;38.02
43115;BME280;28727;50.068;14.452;2023-03-26T10:51:18;98072.81;;;15.47;38.35
43115;BME280;28727;50.068;14.452;2023-03-26T10:54:05;98063.44;;;15.44;38.95
43115;BME280;28727;50.068;14.452;2023-03-26T10:56:49;98069.38;;;15.70;38.47
43115;BME280;28727;50.068;14.452;2023-03-26T10:59:24;98069.00;;;16.01;37.95
43115;BME280;28727;50.068;14.452;2023-03-26T11:02:29;98071.41;;;16.43;37.23
43115;BME280;28727;50.068;14.452;2023-03-26T11:05:16;98055.59;;;16.53;37.29
43115;BME280;28727;50.068;14.452;2023-03-26T11:08:14;98052.69;;;16.66;36.64
43115;BME280;28727;50.068;14.452;2023-03-26T11:11:28;98056.47;;;17.32;36.69
43115;BME280;28727;50.068;14.452;2023-03-26T11:14:26;98057.91;;;17.39;35.63
43115;BME280;28727;50.068;14.452;2023-03-26T11:32:04;98037.16;;;16.63;34.74
43115;BME280;28727;50.068;14.452;2023-03-26T11:34:52;98040.41;;;16.65;34.88
43115;BME280;28727;50.068;14.452;2023-03-26T11:37:40;98039.59;;;16.64;34.02
43115;BME280;28727;50.068;14.452;2023-03-26T11:40:17;98025.16;;;16.77;34.96
43115;BME280;28727;50.068;14.452;2023-03-26T11:42:55;98020.91;;;16.64;34.97
43115;BME280;28727;50.068;14.452;2023-03-26T11:45:31;98026.75;;;16.50;35.62
43115;BME280;28727;50.068;14.452;2023-03-26T11:50:50;98008.78;;;16.28;36.84
43115;BME280;28727;50.068;14.452;2023-03-26T11:53:28;98017.84;;;16.16;36.57
43115;BME280;28727;50.068;14.452;2023-03-26T12:04:29;98030.81;;;15.49;36.46
43115;BME280;28727;50.068;14.452;2023-03-26T12:07:30;98030.25;;;15.47;36.50
43115;BME280;28727;50.068;14.452;2023-03-26T12:10:22;98020.63;;;15.46;36.84
43115;BME280;28727;50.068;14.452;2023-03-26T12:16:16;98014.72;;;15.21;36.62
43115;BME280;28727;50.068;14.452;2023-03-26T12:19:15;98008.03;;;15.18;37.60
43115;BME280;28727;50.068;14.452;2023-03-26T12:21:50;98006.41;;;15.05;38.06
43115;BME280;28727;50.068;14.452;2023-03-26T12:24:25;98009.88;;;14.94;38.07
43115;BME280;28727;50.068;14.452;2023-03-26T12:27:21;98009.63;;;14.84;38.45
43115;BME280;28727;50.068;14.452;2023-03-26T12:29:57;98009.47;;;14.79;38.09
43115;BME280;28727;50.068;14.452;2023-03-26T12:32:31;98009.13;;;14.75;38.40
43115;BME280;28727;50.068;14.452;2023-03-26T12:35:21;98010.13;;;14.63;38.92
43115;BME280;28727;50.068;14.452;2023-03-26T12:38:20;98002.84;;;14.58;38.24
43115;BME280;28727;50.068;14.452;2023-03-26T12:41:10;97997.88;;;14.62;37.92
43115;BME280;28727;50.068;14.452;2023-03-26T12:47:27;98000.88;;;14.24;38.71
43115;BME280;28727;50.068;14.452;2023-03-26T12:50:28;97999.78;;;14.13;39.08
43115;BME280;28727;50.068;14.452;2023-03-26T12:56:37;97993.31;;;13.91;40.24
43115;BME280;28727;50.068;14.452;2023-03-26T13:16:55;97978.00;;;13.57;39.13
43115;BME280;28727;50.068;14.452;2023-03-26T13:44:36;97997.97;;;12.42;47.79
43115;BME280;28727;50.068;14.452;2023-03-26T13:47:18;98002.75;;;12.20;49.73
43115;BME280;28727;50.068;14.452;2023-03-26T13:50:06;97994.91;;;12.07;50.45
43115;BME280;28727;50.068;14.452;2023-03-26T13:52:46;97995.38;;;11.90;51.98
43115;BME280;28727;50.068;14.452;2023-03-26T13:55:29;97989.31;;;11.83;52.82
43115;BME280;28727;50.068;14.452;2023-03-26T13:58:48;97996.66;;;11.68;53.00
43115;BME280;28727;50.068;14.452;2023-03-26T14:01:21;97995.94;;;11.48;55.67
43115;BME280;28727;50.068;14.452;2023-03-26T14:10:06;97992.69;;;11.26;58.40
43115;BME280;28727;50.068;14.452;2023-03-26T14:12:59;97989.03;;;11.27;59.12
43115;BME280;28727;50.068;14.452;2023-03-26T14:15:49;97985.19;;;11.30;58.61
43115;BME280;28727;50.068;14.452;2023-03-26T14:27:41;97968.16;;;11.13;60.81
43115;BME280;28727;50.068;14.452;2023-03-26T14:39:48;97960.59;;;11.16;61.92
43115;BME280;28727;50.068;14.452;2023-03-26T14:42:28;97965.50;;;11.13;61.50
43115;BME280;28727;50.068;14.452;2023-03-26T14:45:16;97954.13;;;11.12;61.15
43115;BME280;28727;50.068;14.452;2023-03-26T14:51:11;97956.38;;;10.95;61.81
43115;BME280;28727;50.068;14.452;2023-03-26T14:53:59;97962.25;;;10.91;61.95
43115;BME280;28727;50.068;14.452;2023-03-26T14:56:36;97950.50;;;10.80;62.22
43115;BME280;28727;50.068;14.452;2023-03-26T15:14:00;97935.25;;;10.62;63.63
43115;BME280;28727;50.068;14.452;2023-03-26T15:22:48;97935.47;;;10.28;63.29
43115;BME280;28727;50.068;14.452;2023-03-26T15:26:00;97924.69;;;10.30;62.44
43115;BME280;28727;50.068;14.452;2023-03-26T15:40:44;97910.91;;;10.41;62.85
43115;BME280;28727;50.068;14.452;2023-03-26T15:43:19;97912.09;;;10.25;63.46
43115;BME280;28727;50.068;14.452;2023-03-26T15:46:21;97906.22;;;10.16;63.93
43115;BME280;28727;50.068;14.452;2023-03-26T15:52:16;97910.84;;;10.14;65.46
43115;BME280;28727;50.068;14.452;2023-03-26T15:55:33;97913.88;;;10.11;64.92
43115;BME280;28727;50.068;14.452;2023-03-26T15:58:29;97900.88;;;10.03;64.81
43115;BME280;28727;50.068;14.452;2023-03-26T16:15:12;97876.53;;;10.14;64.35
43115;BME280;28727;50.068;14.452;2023-03-26T16:21:00;97891.81;;;10.19;64.77
43115;BME280;28727;50.068;14.452;2023-03-26T16:23:49;97881.03;;;10.20;64.25
43115;BME280;28727;50.068;14.452;2023-03-26T16:34:49;97871.25;;;10.14;65.35
43115;BME280;28727;50.068;14.452;2023-03-26T16:46:54;97874.13;;;10.13;66.57
43115;BME280;28727;50.068;14.452;2023-03-26T16:54:43;97870.25;;;10.15;67.26
43115;BME280;28727;50.068;14.452;2023-03-26T17:00:25;97867.81;;;10.01;66.48
43115;BME280;28727;50.068;14.452;2023-03-26T17:06:22;97854.59;;;10.07;66.48
43115;BME280;28727;50.068;14.452;2023-03-26T17:15:16;97873.69;;;10.03;66.58
43115;BME280;28727;50.068;14.452;2023-03-26T17:26:52;97878.97;;;10.09;67.39
43115;BME280;28727;50.068;14.452;2023-03-26T17:32:13;97870.84;;;9.98;67.55
43115;BME280;28727;50.068;14.452;2023-03-26T17:34:53;97874.91;;;9.94;68.26
43115;BME280;28727;50.068;14.452;2023-03-26T17:37:38;97874.09;;;9.93;68.15
43115;BME280;28727;50.068;14.452;2023-03-26T17:43:47;97888.28;;;9.85;69.21
43115;BME280;28727;50.068;14.452;2023-03-26T17:46:55;97890.09;;;9.85;69.52
43115;BME280;28727;50.068;14.452;2023-03-26T17:49:29;97881.38;;;9.84;69.15
43115;BME280;28727;50.068;14.452;2023-03-26T17:54:50;97881.78;;;9.81;69.44
43115;BME280;28727;50.068;14.452;2023-03-26T17:57:37;97874.84;;;9.74;69.83
43115;BME280;28727;50.068;14.452;2023-03-26T18:00:39;97881.75;;;9.68;70.53
43115;BME280;28727;50.068;14.452;2023-03-26T18:03:17;97878.06;;;9.63;70.70
43115;BME280;28727;50.068;14.452;2023-03-26T18:05:52;97871.38;;;9.60;70.35
43115;BME280;28727;50.068;14.452;2023-03-26T18:14:43;97874.00;;;9.47;70.98
43115;BME280;28727;50.068;14.452;2023-03-26T18:17:16;97871.72;;;9.44;70.75
43115;BME280;28727;50.068;14.452;2023-03-26T18:19:53;97878.41;;;9.40;71.14
43115;BME280;28727;50.068;14.452;2023-03-26T18:22:26;97876.97;;;9.37;71.17
43115;BME280;28727;50.068;14.452;2023-03-26T18:25:00;97880.63;;;9.30;71.98
43115;BME280;28727;50.068;14.452;2023-03-26T18:27:38;97879.19;;;9.27;72.28
43115;BME280;28727;50.068;14.452;2023-03-26T18:30:15;97882.81;;;9.26;72.04
43115;BME280;28727;50.068;14.452;2023-03-26T18:33:02;97883.63;;;9.27;71.28
43115;BME280;28727;50.068;14.452;2023-03-26T18:35:49;97887.25;;;9.26;71.85
43115;BME280;28727;50.068;14.452;2023-03-26T18:38:22;97871.47;;;9.26;71.36
43115;BME280;28727;50.068;14.452;2023-03-26T18:41:18;97876.94;;;9.24;71.76
43115;BME280;28727;50.068;14.452;2023-03-26T18:43:54;97873.69;;;9.22;71.71
43115;BME280;28727;50.068;14.452;2023-03-26T18:46:27;97867.78;;;9.20;72.13
43115;BME280;28727;50.068;14.452;2023-03-26T18:49:00;97867.19;;;9.18;72.37
43115;BME280;28727;50.068;14.452;2023-03-26T18:51:33;97869.19;;;9.16;72.27
43115;BME280;28727;50.068;14.452;2023-03-26T18:54:20;97865.75;;;9.16;72.82
43115;BME280;28727;50.068;14.452;2023-03-26T18:56:53;97860.66;;;9.14;72.59
43115;BME280;28727;50.068;14.452;2023-03-26T18:59:27;97859.25;;;9.12;72.36
43115;BME280;28727;50.068;14.452;2023-03-26T19:02:05;97854.19;;;9.10;72.43
43115;BME280;28727;50.068;14.452;2023-03-26T19:04:43;97853.56;;;9.08;73.25
43115;BME280;28727;50.068;14.452;2023-03-26T19:07:20;97838.75;;;9.00;73.57
43115;BME280;28727;50.068;14.452;2023-03-26T19:09:55;97833.44;;;8.94;73.01
43115;BME280;28727;50.068;14.452;2023-03-26T19:12:29;97830.38;;;8.90;73.30
43115;BME280;28727;50.068;14.452;2023-03-26T19:15:15;97830.16;;;8.85;73.37
43115;BME280;28727;50.068;14.452;2023-03-26T19:17:50;97825.88;;;8.84;73.42
43115;BME280;28727;50.068;14.452;2023-03-26T19:20:28;97825.47;;;8.81;73.29
43115;BME280;28727;50.068;14.452;2023-03-26T19:23:03;97821.41;;;8.78;73.17
43115;BME280;28727;50.068;14.452;2023-03-26T19:25:40;97827.44;;;8.72;74.03
43115;BME280;28727;50.068;14.452;2023-03-26T19:28:17;97824.41;;;8.69;74.07
43115;BME280;28727;50.068;14.452;2023-03-26T19:30:57;97828.44;;;8.65;74.78
43115;BME280;28727;50.068;14.452;2023-03-26T19:33:36;97823.53;;;8.61;74.32
43115;BME280;28727;50.068;14.452;2023-03-26T19:38:49;97817.03;;;8.57;74.87
43115;BME280;28727;50.068;14.452;2023-03-26T19:43:58;97812.75;;;8.50;74.91
43115;BME280;28727;50.068;14.452;2023-03-26T19:46:33;97808.69;;;8.47;74.80
43115;BME280;28727;50.068;14.452;2023-03-26T19:49:28;97798.13;;;8.41;74.75
43115;BME280;28727;50.068;14.452;2023-03-26T19:52:17;97793.06;;;8.39;74.83
43115;BME280;28727;50.068;14.452;2023-03-26T19:57:37;97792.19;;;8.32;75.85
43115;BME280;28727;50.068;14.452;2023-03-26T20:00:11;97797.81;;;8.29;75.86
43115;BME280;28727;50.068;14.452;2023-03-26T20:02:49;97794.56;;;8.27;75.23
43115;BME280;28727;50.068;14.452;2023-03-26T20:05:24;97800.00;;;8.26;75.43
43115;BME280;28727;50.068;14.452;2023-03-26T20:07:59;97801.41;;;8.21;75.41
43115;BME280;28727;50.068;14.452;2023-03-26T20:10:41;97803.81;;;8.16;75.57
43115;BME280;28727;50.068;14.452;2023-03-26T20:13:15;97801.94;;;8.10;76.31
43115;BME280;28727;50.068;14.452;2023-03-26T20:15:56;97794.63;;;8.06;76.47
43115;BME280;28727;50.068;14.452;2023-03-26T20:18:36;97805.31;;;8.04;76.41
43115;BME280;28727;50.068;14.452;2023-03-26T20:21:10;97801.06;;;8.03;75.95
43115;BME280;28727;50.068;14.452;2023-03-26T20:23:43;97811.16;;;8.00;76.94
43115;BME280;28727;50.068;14.452;2023-03-26T20:26:15;97817.41;;;7.99;76.86
43115;BME280;28727;50.068;14.452;2023-03-26T20:28:49;97813.72;;;7.93;77.71
43115;BME280;28727;50.068;14.452;2023-03-26T20:31:24;97806.84;;;7.92;77.36
43115;BME280;28727;50.068;14.452;2023-03-26T20:33:57;97803.41;;;7.92;76.87
43115;BME280;28727;50.068;14.452;2023-03-26T20:36:29;97808.47;;;7.93;77.41
43115;BME280;28727;50.068;14.452;2023-03-26T20:39:05;97810.28;;;7.93;76.99
43115;BME280;28727;50.068;14.452;2023-03-26T20:41:46;97807.66;;;7.93;76.87